createdAt,value
2018-03-24T00:00:00.439Z,61
2018-03-24T00:01:03.129Z,61.1
2018-03-24T00:02:05.511Z,61.1
2018-03-24T00:03:07.876Z,61
2018-03-24T00:04:10.284Z,60.9
2018-03-24T00:05:13.015Z,61
2018-03-24T00:06:15.373Z,61
2018-03-24T00:07:18.281Z,61
2018-03-24T00:08:20.671Z,61
2018-03-24T00:09:23.109Z,61
2018-03-24T00:10:25.809Z,61.1
2018-03-24T00:11:28.477Z,61.1
2018-03-24T00:12:31.206Z,61.1
2018-03-24T00:13:34.082Z,61.2
2018-03-24T00:14:36.502Z,61.1
2018-03-24T00:15:38.873Z,61.2
2018-03-24T00:16:41.364Z,61.2
2018-03-24T00:17:43.740Z,61.1
2018-03-24T00:18:46.119Z,61.1
2018-03-24T00:19:48.523Z,61.1
2018-03-24T00:20:51.197Z,61.2
2018-03-24T00:21:53.571Z,61.4
2018-03-24T00:22:55.933Z,61.5
2018-03-24T00:23:58.736Z,61.4
2018-03-24T00:25:01.141Z,61.4
2018-03-24T00:26:03.792Z,61.3
2018-03-24T00:27:06.174Z,61.4
2018-03-24T00:28:08.629Z,61.3
2018-03-24T00:29:10.999Z,61.2
2018-03-24T00:30:13.660Z,61.2
2018-03-24T00:31:16.029Z,61.3
2018-03-24T00:32:18.396Z,61.4
2018-03-24T00:33:21.063Z,61.4
2018-03-24T00:34:23.429Z,61.5
2018-03-24T00:35:25.794Z,61.7
2018-03-24T00:36:28.176Z,61.7
2018-03-24T00:37:30.555Z,61.8
2018-03-24T00:38:32.977Z,61.7
2018-03-24T00:39:35.633Z,61.7
2018-03-24T00:40:38.011Z,61.7
2018-03-24T00:41:40.379Z,61.8
2018-03-24T00:42:43.048Z,62
2018-03-24T00:43:46.083Z,62
2018-03-24T00:44:48.451Z,62.1
2018-03-24T00:45:50.825Z,62
2018-03-24T00:46:53.196Z,61.9
2018-03-24T00:47:55.856Z,61.9
2018-03-24T00:48:58.230Z,61.9
2018-03-24T00:50:00.606Z,61.8
2018-03-24T00:51:03.266Z,61.7
2018-03-24T00:52:05.695Z,61.7
2018-03-24T00:53:08.360Z,61.7
2018-03-24T00:54:10.731Z,61.8
2018-03-24T00:55:13.114Z,62
2018-03-24T00:56:15.490Z,62
2018-03-24T00:57:17.875Z,61.9
2018-03-24T00:58:20.264Z,61.9
2018-03-24T00:59:22.640Z,61.8
2018-03-24T01:00:25.006Z,61.7
2018-03-24T01:01:27.711Z,61.8
2018-03-24T01:02:30.107Z,61.9
2018-03-24T01:03:33.037Z,61.9
2018-03-24T01:04:35.412Z,61.8
2018-03-24T01:05:37.796Z,61.8
2018-03-24T01:06:40.448Z,61.9
2018-03-24T01:07:43.105Z,62
2018-03-24T01:08:45.486Z,62
2018-03-24T01:09:47.855Z,62
2018-03-24T01:10:50.322Z,61.8
2018-03-24T01:11:52.699Z,61.8
2018-03-24T01:12:55.071Z,61.9
2018-03-24T01:13:57.450Z,62
2018-03-24T01:14:59.830Z,62
2018-03-24T01:16:02.190Z,61.8
2018-03-24T01:17:04.567Z,61.9
2018-03-24T01:18:06.941Z,61.9
2018-03-24T01:19:09.314Z,62
2018-03-24T01:20:11.977Z,62
2018-03-24T01:21:14.396Z,62.1
2018-03-24T01:22:16.775Z,62.1
2018-03-24T01:23:19.439Z,62.1
2018-03-24T01:24:21.910Z,62
2018-03-24T01:25:24.872Z,62
2018-03-24T01:26:27.243Z,61.9
2018-03-24T01:27:29.602Z,62
2018-03-24T01:28:31.981Z,62
2018-03-24T01:29:34.352Z,62.3
2018-03-24T01:30:36.770Z,62.3
2018-03-24T01:31:39.157Z,62.3
2018-03-24T01:32:41.529Z,62.2
2018-03-24T01:33:44.210Z,62.2
2018-03-24T01:34:46.890Z,62.1
2018-03-24T01:35:49.545Z,62.2
2018-03-24T01:36:52.201Z,62.3
2018-03-24T01:37:54.580Z,62.3
2018-03-24T01:38:56.951Z,62.3
2018-03-24T01:39:59.601Z,62.3
2018-03-24T01:41:01.973Z,62.3
2018-03-24T01:42:04.641Z,62.4
2018-03-24T01:43:07.024Z,62.4
2018-03-24T01:44:09.401Z,62.3
2018-03-24T01:45:11.764Z,62.2
2018-03-24T01:46:14.142Z,62.1
2018-03-24T01:47:16.528Z,62
2018-03-24T01:48:18.896Z,62.1
2018-03-24T01:49:21.259Z,62.1
2018-03-24T01:50:23.645Z,62
2018-03-24T01:51:26.020Z,62.2
2018-03-24T01:52:28.680Z,62.2
2018-03-24T01:53:31.157Z,62.3
2018-03-24T01:54:33.517Z,62.2
2018-03-24T01:55:35.882Z,62.2
2018-03-24T01:56:38.269Z,62.1
2018-03-24T01:57:40.637Z,62.2
2018-03-24T01:58:43.310Z,62.3
2018-03-24T01:59:45.680Z,62.4
2018-03-24T02:00:48.052Z,62.4
2018-03-24T02:01:50.441Z,62.4
2018-03-24T02:02:52.831Z,62.5
2018-03-24T02:03:55.460Z,62.5
2018-03-24T02:04:57.834Z,62.4
2018-03-24T02:06:00.499Z,62.4
2018-03-24T02:07:02.860Z,62.3
2018-03-24T02:08:05.238Z,62.4
2018-03-24T02:09:07.617Z,62.4
2018-03-24T02:10:09.986Z,62.4
2018-03-24T02:11:12.376Z,62.3
2018-03-24T02:12:14.855Z,62.1
2018-03-24T02:13:17.509Z,62.1
2018-03-24T02:14:19.889Z,62.1
2018-03-24T02:15:22.271Z,62.2
2018-03-24T02:16:24.939Z,62.1
2018-03-24T02:17:27.682Z,61.9
2018-03-24T02:18:30.064Z,62
2018-03-24T02:19:32.714Z,62.1
2018-03-24T02:20:35.382Z,62
2018-03-24T02:21:38.030Z,62.1
2018-03-24T02:22:40.413Z,62.3
2018-03-24T02:23:42.776Z,62.2
2018-03-24T02:24:45.150Z,62.3
2018-03-24T02:25:47.514Z,62.3
2018-03-24T02:26:50.173Z,62.4
2018-03-24T02:27:52.539Z,62.5
2018-03-24T02:28:54.915Z,62.3
2018-03-24T02:29:57.351Z,62.3
2018-03-24T02:31:00.033Z,62.3
2018-03-24T02:32:02.405Z,62.3
2018-03-24T02:33:04.787Z,62.3
2018-03-24T02:34:07.164Z,62.3
2018-03-24T02:35:09.533Z,62.1
2018-03-24T02:36:11.902Z,62.1
2018-03-24T02:37:14.280Z,62.1
2018-03-24T02:38:16.651Z,62.1
2018-03-24T02:39:19.073Z,62.1
2018-03-24T02:40:21.743Z,62.2
2018-03-24T02:41:24.116Z,62.1
2018-03-24T02:42:26.490Z,62.2
2018-03-24T02:43:28.857Z,62.1
2018-03-24T02:44:31.236Z,62
2018-03-24T02:45:33.610Z,62.1
2018-03-24T02:46:35.978Z,62
2018-03-24T02:47:38.651Z,62.1
2018-03-24T02:48:41.018Z,62.1
2018-03-24T02:49:43.478Z,62
2018-03-24T02:50:45.849Z,62
2018-03-24T02:51:48.524Z,62
2018-03-24T02:52:50.880Z,62
2018-03-24T02:53:53.262Z,62.2
2018-03-24T02:54:55.935Z,62.2
2018-03-24T02:55:58.601Z,62.3
2018-03-24T02:57:01.552Z,62.4
2018-03-24T02:58:03.920Z,62.4
2018-03-24T02:59:06.384Z,62.4
2018-03-24T03:00:08.769Z,62.3
2018-03-24T03:01:11.139Z,62.2
2018-03-24T03:02:13.521Z,62.2
2018-03-24T03:03:15.999Z,62.1
2018-03-24T03:04:18.686Z,62.2
2018-03-24T03:05:21.366Z,62.2
2018-03-24T03:06:24.054Z,62.3
2018-03-24T03:07:26.711Z,62.2
2018-03-24T03:08:29.092Z,62.2
2018-03-24T03:09:31.468Z,62.3
2018-03-24T03:10:33.840Z,62.3
2018-03-24T03:11:36.500Z,62.3
2018-03-24T03:12:38.864Z,62.3
2018-03-24T03:13:42.056Z,62.4
2018-03-24T03:14:44.428Z,62.3
2018-03-24T03:15:46.800Z,62.3
2018-03-24T03:16:49.179Z,62.2
2018-03-24T03:17:51.552Z,62.2
2018-03-24T03:18:53.923Z,62.1
2018-03-24T03:19:56.308Z,62.1
2018-03-24T03:20:58.678Z,62.2
2018-03-24T03:22:01.047Z,62.2
2018-03-24T03:23:03.433Z,62.3
2018-03-24T03:24:05.807Z,62.3
2018-03-24T03:25:08.204Z,62.3
2018-03-24T03:26:10.583Z,62.2
2018-03-24T03:27:13.224Z,62.2
2018-03-24T03:28:15.597Z,62.2
2018-03-24T03:29:17.979Z,62.2
2018-03-24T03:30:20.345Z,62.1
2018-03-24T03:31:22.721Z,62.1
2018-03-24T03:32:25.379Z,62.1
2018-03-24T03:33:27.804Z,62.2
2018-03-24T03:34:30.231Z,62.2
2018-03-24T03:35:32.583Z,62.2
2018-03-24T03:36:35.026Z,62.3
2018-03-24T03:37:37.393Z,62.4
2018-03-24T03:38:39.790Z,62.4
2018-03-24T03:39:42.364Z,62.2
2018-03-24T03:40:44.735Z,62.1
2018-03-24T03:41:47.104Z,62
2018-03-24T03:42:49.466Z,62
2018-03-24T03:43:51.848Z,62.1
2018-03-24T03:44:54.223Z,62.3
2018-03-24T03:45:56.873Z,62.4
2018-03-24T03:46:59.248Z,62.3
2018-03-24T03:48:01.615Z,62.4
2018-03-24T03:49:03.987Z,62.4
2018-03-24T03:50:06.361Z,62.4
2018-03-24T03:51:08.730Z,62.4
2018-03-24T03:52:11.102Z,62.5
2018-03-24T03:53:13.560Z,62.5
2018-03-24T03:54:15.935Z,62.3
2018-03-24T03:55:18.299Z,62.3
2018-03-24T03:56:20.688Z,62.4
2018-03-24T03:57:23.057Z,62.3
2018-03-24T03:58:25.438Z,62.4
2018-03-24T03:59:27.851Z,62.3
2018-03-24T04:00:30.507Z,62.3
2018-03-24T04:01:33.164Z,62.2
2018-03-24T04:02:35.545Z,62.1
2018-03-24T04:03:37.917Z,62.1
2018-03-24T04:04:40.570Z,62.3
2018-03-24T04:05:42.947Z,62.3
2018-03-24T04:06:45.891Z,62.3
2018-03-24T04:07:48.255Z,62.4
2018-03-24T04:08:50.625Z,62.4
2018-03-24T04:09:53.010Z,62.6
2018-03-24T04:10:55.381Z,62.6
2018-03-24T04:11:57.749Z,62.4
2018-03-24T04:13:00.129Z,62.4
2018-03-24T04:14:02.550Z,62.3
2018-03-24T04:15:05.454Z,62.3
2018-03-24T04:16:07.834Z,62.3
2018-03-24T04:17:10.193Z,62.3
2018-03-24T04:18:12.579Z,62.4
2018-03-24T04:19:14.939Z,62.4
2018-03-24T04:20:17.325Z,62.4
2018-03-24T04:21:19.697Z,62.4
2018-03-24T04:22:22.068Z,62.4
2018-03-24T04:23:24.471Z,62.5
2018-03-24T04:24:26.849Z,62.5
2018-03-24T04:25:29.230Z,62.3
2018-03-24T04:26:31.630Z,62.1
2018-03-24T04:27:33.975Z,62
2018-03-24T04:28:36.342Z,62
2018-03-24T04:29:38.716Z,62
2018-03-24T04:30:41.094Z,62.2
2018-03-24T04:31:43.457Z,62.2
2018-03-24T04:32:45.852Z,62.3
2018-03-24T04:33:48.234Z,62.3
2018-03-24T04:34:50.607Z,62.2
2018-03-24T04:35:52.979Z,62.4
2018-03-24T04:36:55.352Z,62.5
2018-03-24T04:37:57.720Z,62.5
2018-03-24T04:39:00.088Z,62.5
2018-03-24T04:40:02.753Z,62.5
2018-03-24T04:41:05.397Z,62.5
2018-03-24T04:42:07.772Z,62.5
2018-03-24T04:43:10.157Z,62.6
2018-03-24T04:44:12.531Z,62.8
2018-03-24T04:45:15.470Z,62.9
2018-03-24T04:46:17.844Z,62.9
2018-03-24T04:47:20.214Z,62.8
2018-03-24T04:48:22.586Z,62.7
2018-03-24T04:49:24.962Z,62.7
2018-03-24T04:50:27.326Z,62.6
2018-03-24T04:51:29.985Z,62.7
2018-03-24T04:52:32.463Z,62.8
2018-03-24T04:53:35.133Z,62.7
2018-03-24T04:54:37.547Z,62.6
2018-03-24T04:55:39.919Z,62.5
2018-03-24T04:56:42.295Z,62.6
2018-03-24T04:57:44.745Z,62.6
2018-03-24T04:58:47.117Z,62.7
2018-03-24T04:59:50.079Z,62.9
2018-03-24T05:00:52.734Z,63
2018-03-24T05:01:55.476Z,63.1
2018-03-24T05:02:58.406Z,62.9
2018-03-24T05:04:00.846Z,63
2018-03-24T05:05:03.158Z,62.9
2018-03-24T05:06:05.528Z,63
2018-03-24T05:07:07.891Z,62.8
2018-03-24T05:08:10.272Z,62.8
2018-03-24T05:09:12.656Z,62.9
2018-03-24T05:10:15.613Z,62.9
2018-03-24T05:11:17.974Z,62.8
2018-03-24T05:12:20.339Z,62.8
2018-03-24T05:13:22.728Z,62.8
2018-03-24T05:14:25.106Z,62.7
2018-03-24T05:15:27.490Z,62.8
2018-03-24T05:16:29.901Z,62.8
2018-03-24T05:17:32.285Z,62.8
2018-03-24T05:18:34.650Z,62.9
2018-03-24T05:19:37.022Z,62.9
2018-03-24T05:20:39.669Z,62.8
2018-03-24T05:21:42.042Z,62.8
2018-03-24T05:22:44.617Z,62.7
2018-03-24T05:23:46.991Z,62.7
2018-03-24T05:24:49.362Z,62.7
2018-03-24T05:25:52.028Z,62.9
2018-03-24T05:26:54.704Z,62.8
2018-03-24T05:27:57.074Z,62.7
2018-03-24T05:28:59.448Z,62.7
2018-03-24T05:30:01.824Z,62.8
2018-03-24T05:31:04.788Z,62.7
2018-03-24T05:32:07.450Z,62.8
2018-03-24T05:33:09.808Z,62.7
2018-03-24T05:34:12.176Z,62.7
2018-03-24T05:35:14.542Z,62.7
2018-03-24T05:36:16.912Z,62.7
2018-03-24T05:37:19.563Z,62.5
2018-03-24T05:38:21.944Z,62.6
2018-03-24T05:39:24.312Z,62.6
2018-03-24T05:40:26.987Z,62.7
2018-03-24T05:41:29.636Z,62.8
2018-03-24T05:42:32.584Z,62.9
2018-03-24T05:43:34.947Z,62.9
2018-03-24T05:44:37.322Z,62.7
2018-03-24T05:45:39.967Z,62.7
2018-03-24T05:46:42.334Z,62.9
2018-03-24T05:47:44.700Z,62.9
2018-03-24T05:48:47.357Z,62.8
2018-03-24T05:49:50.004Z,62.9
2018-03-24T05:50:52.385Z,62.9
2018-03-24T05:51:54.745Z,63
2018-03-24T05:52:57.124Z,63
2018-03-24T05:53:59.505Z,62.9
2018-03-24T05:55:01.884Z,62.9
2018-03-24T05:56:04.536Z,62.9
2018-03-24T05:57:06.910Z,62.9
2018-03-24T05:58:09.270Z,62.9
2018-03-24T05:59:11.662Z,62.9
2018-03-24T06:00:14.028Z,62.9
2018-03-24T06:01:16.392Z,62.9
2018-03-24T06:02:18.764Z,63
2018-03-24T06:03:21.142Z,62.9
2018-03-24T06:04:23.504Z,63.1
2018-03-24T06:05:26.163Z,63.1
2018-03-24T06:06:28.547Z,63.2
2018-03-24T06:07:31.209Z,63.1
2018-03-24T06:08:33.579Z,63
2018-03-24T06:09:35.944Z,63
2018-03-24T06:10:38.385Z,63.1
2018-03-24T06:11:40.686Z,63.1
2018-03-24T06:12:43.052Z,63
2018-03-24T06:13:45.416Z,63
2018-03-24T06:14:47.787Z,63.2
2018-03-24T06:15:50.441Z,63.1
2018-03-24T06:16:53.092Z,63
2018-03-24T06:17:55.465Z,63.1
2018-03-24T06:18:58.478Z,63.2
2018-03-24T06:20:00.816Z,63.2
2018-03-24T06:21:03.194Z,63.2
2018-03-24T06:22:05.606Z,63.3
2018-03-24T06:23:08.317Z,63.4
2018-03-24T06:24:10.694Z,63.5
2018-03-24T06:25:13.362Z,63.5
2018-03-24T06:26:15.735Z,63.5
2018-03-24T06:27:18.373Z,63.4
2018-03-24T06:28:20.752Z,63.4
2018-03-24T06:29:23.691Z,63.4
2018-03-24T06:30:26.069Z,63.4
2018-03-24T06:31:28.442Z,63.5
2018-03-24T06:32:31.100Z,63.4
2018-03-24T06:33:33.479Z,63.4
2018-03-24T06:34:35.846Z,63.4
2018-03-24T06:35:38.214Z,63.4
2018-03-24T06:36:40.593Z,63.3
2018-03-24T06:37:42.963Z,63.1
2018-03-24T06:38:45.614Z,63.2
2018-03-24T06:39:48.005Z,63.4
2018-03-24T06:40:50.373Z,63.4
2018-03-24T06:41:52.741Z,63.3
2018-03-24T06:42:55.127Z,63.2
2018-03-24T06:43:57.499Z,63.3
2018-03-24T06:44:59.926Z,63.2
2018-03-24T06:46:02.255Z,63.3
2018-03-24T06:47:04.906Z,63.3
2018-03-24T06:48:07.287Z,63.3
2018-03-24T06:49:09.673Z,63.5
2018-03-24T06:50:12.047Z,63.4
2018-03-24T06:51:14.712Z,63.3
2018-03-24T06:52:17.076Z,63.3
2018-03-24T06:53:19.448Z,63.3
2018-03-24T06:54:22.670Z,63.3
2018-03-24T06:55:25.072Z,63.2
2018-03-24T06:56:27.398Z,63.1
2018-03-24T06:57:30.073Z,62.9
2018-03-24T06:58:32.459Z,63
2018-03-24T06:59:34.833Z,63.1
2018-03-24T07:00:37.267Z,63.1
2018-03-24T07:01:39.594Z,63.1
2018-03-24T07:02:41.975Z,63.1
2018-03-24T07:03:44.331Z,63
2018-03-24T07:04:46.983Z,63
2018-03-24T07:05:49.362Z,63
2018-03-24T07:06:51.731Z,63.2
2018-03-24T07:07:54.114Z,63.3
2018-03-24T07:08:56.484Z,63.2
2018-03-24T07:09:58.851Z,63.1
2018-03-24T07:11:01.544Z,63.1
2018-03-24T07:12:03.919Z,63
2018-03-24T07:13:06.303Z,62.9
2018-03-24T07:14:08.673Z,62.9
2018-03-24T07:15:11.051Z,63
2018-03-24T07:16:13.424Z,63.1
2018-03-24T07:17:15.807Z,63.1
2018-03-24T07:18:18.175Z,63.2
2018-03-24T07:19:20.563Z,63.3
2018-03-24T07:20:22.934Z,63.3
2018-03-24T07:21:25.310Z,63.1
2018-03-24T07:22:27.676Z,63
2018-03-24T07:23:30.065Z,62.9
2018-03-24T07:24:32.441Z,62.9
2018-03-24T07:25:35.095Z,62.7
2018-03-24T07:26:38.045Z,62.8
2018-03-24T07:27:40.424Z,62.7
2018-03-24T07:28:42.799Z,62.7
2018-03-24T07:29:45.185Z,62.7
2018-03-24T07:30:47.560Z,62.6
2018-03-24T07:31:49.924Z,62.6
2018-03-24T07:32:52.296Z,62.5
2018-03-24T07:33:54.669Z,62.6
2018-03-24T07:34:57.051Z,62.6
2018-03-24T07:35:59.729Z,62.8
2018-03-24T07:37:02.097Z,62.9
2018-03-24T07:38:04.471Z,63.1
2018-03-24T07:39:07.146Z,63
2018-03-24T07:40:09.524Z,63
2018-03-24T07:41:11.895Z,63
2018-03-24T07:42:14.543Z,63
2018-03-24T07:43:16.914Z,62.9
2018-03-24T07:44:19.294Z,62.8
2018-03-24T07:45:21.675Z,62.8
2018-03-24T07:46:24.035Z,62.8
2018-03-24T07:47:26.419Z,62.8
2018-03-24T07:48:28.805Z,62.8
2018-03-24T07:49:31.169Z,62.8
2018-03-24T07:50:34.117Z,62.9
2018-03-24T07:51:36.485Z,62.9
2018-03-24T07:52:38.856Z,62.7
2018-03-24T07:53:41.578Z,62.5
2018-03-24T07:54:43.895Z,62.3
2018-03-24T07:55:46.262Z,62
2018-03-24T07:56:48.642Z,62
2018-03-24T07:57:51.009Z,62.1
2018-03-24T07:58:53.389Z,62
2018-03-24T07:59:55.763Z,62
2018-03-24T08:00:58.145Z,62.3
2018-03-24T08:02:00.521Z,62.3
2018-03-24T08:03:02.878Z,62.3
2018-03-24T08:04:05.550Z,62.3
2018-03-24T08:05:07.924Z,62.4
2018-03-24T08:06:10.581Z,62.5
2018-03-24T08:07:13.246Z,62.6
2018-03-24T08:08:15.614Z,62.5
2018-03-24T08:09:17.989Z,62.7
2018-03-24T08:10:20.653Z,62.9
2018-03-24T08:11:23.017Z,62.9
2018-03-24T08:12:25.396Z,62.9
2018-03-24T08:13:27.765Z,62.9
2018-03-24T08:14:30.138Z,62.8
2018-03-24T08:15:32.517Z,62.8
2018-03-24T08:16:34.898Z,61.8
2018-03-24T08:17:37.261Z,61.9
2018-03-24T08:18:39.636Z,61.8
2018-03-24T08:19:42.285Z,61.8
2018-03-24T08:20:44.945Z,61.6
2018-03-24T08:21:47.318Z,61.5
2018-03-24T08:22:49.981Z,61.5
2018-03-24T08:23:52.356Z,61.6
2018-03-24T08:24:54.745Z,61.5
2018-03-24T08:25:57.122Z,61.4
2018-03-24T08:26:59.499Z,61.5
2018-03-24T08:28:02.161Z,61.3
2018-03-24T08:29:04.557Z,61.1
2018-03-24T08:30:06.948Z,61.2
2018-03-24T08:31:09.378Z,61.4
2018-03-24T08:32:11.808Z,61.3
2018-03-24T08:33:14.289Z,61.2
2018-03-24T08:34:16.694Z,61.3
2018-03-24T08:35:19.134Z,61.2
2018-03-24T08:36:21.568Z,60.9
2018-03-24T08:37:24.006Z,61
2018-03-24T08:38:26.502Z,61
2018-03-24T08:39:28.884Z,61
2018-03-24T08:40:31.310Z,61.1
2018-03-24T08:41:34.052Z,61.1
2018-03-24T08:42:36.480Z,61
2018-03-24T08:43:39.202Z,60.9
2018-03-24T08:44:41.671Z,60.9
2018-03-24T08:45:44.373Z,60.9
2018-03-24T08:46:47.392Z,61
2018-03-24T08:47:49.819Z,61
2018-03-24T08:48:52.243Z,61
2018-03-24T08:49:54.720Z,61.2
2018-03-24T08:50:57.147Z,61.2
2018-03-24T08:51:59.569Z,61.4
2018-03-24T08:53:02.040Z,61.3
2018-03-24T08:54:04.472Z,61.3
2018-03-24T08:55:06.951Z,61.4
2018-03-24T08:56:09.681Z,61.4
2018-03-24T08:57:12.096Z,61.3
2018-03-24T08:58:14.564Z,61.1
2018-03-24T08:59:16.990Z,61.1
2018-03-24T09:00:19.426Z,61.2
2018-03-24T09:01:21.864Z,61.4
2018-03-24T09:02:24.279Z,61.4
2018-03-24T09:03:26.786Z,61.5
2018-03-24T09:04:30.218Z,61.4
2018-03-24T09:05:32.644Z,61.4
2018-03-24T09:06:35.096Z,61.3
2018-03-24T09:07:37.843Z,61.5
2018-03-24T09:08:40.269Z,61.8
2018-03-24T09:09:42.706Z,62
2018-03-24T09:10:45.131Z,62
2018-03-24T09:11:47.849Z,62
2018-03-24T09:12:50.292Z,61.9
2018-03-24T09:13:52.735Z,61.8
2018-03-24T09:14:55.171Z,61.8
2018-03-24T09:15:57.916Z,61.8
2018-03-24T09:17:00.306Z,61.6
2018-03-24T09:18:02.757Z,61.4
2018-03-24T09:19:05.249Z,61.5
2018-03-24T09:20:07.974Z,61.4
2018-03-24T09:21:10.399Z,61.2
2018-03-24T09:22:13.250Z,61
2018-03-24T09:23:15.611Z,61
2018-03-24T09:24:18.059Z,61.2
2018-03-24T09:25:20.754Z,61.2
2018-03-24T09:26:23.180Z,61.3
2018-03-24T09:27:26.101Z,61.5
2018-03-24T09:28:28.823Z,61.3
2018-03-24T09:29:31.262Z,61.3
2018-03-24T09:30:33.774Z,61.3
2018-03-24T09:31:36.199Z,61.2
2018-03-24T09:32:38.626Z,61.3
2018-03-24T09:33:41.069Z,61.2
2018-03-24T09:34:43.497Z,61
2018-03-24T09:35:46.066Z,61
2018-03-24T09:36:48.499Z,60.8
2018-03-24T09:37:50.951Z,60.3
2018-03-24T09:38:53.661Z,60.3
2018-03-24T09:39:56.098Z,60.2
2018-03-24T09:40:59.435Z,60.3
2018-03-24T09:42:01.874Z,60.3
2018-03-24T09:43:04.319Z,60.4
2018-03-24T09:44:07.030Z,60.6
2018-03-24T09:45:09.543Z,60.7
2018-03-24T09:46:11.987Z,60.5
2018-03-24T09:47:14.727Z,60.3
2018-03-24T09:48:17.453Z,60.1
2018-03-24T09:49:19.892Z,60
2018-03-24T09:50:22.367Z,60
2018-03-24T09:51:24.803Z,60
2018-03-24T09:52:27.243Z,60
2018-03-24T09:53:29.955Z,60
2018-03-24T09:54:32.391Z,60.4
2018-03-24T09:55:34.930Z,60.5
2018-03-24T09:56:37.358Z,60.5
2018-03-24T09:57:40.094Z,60.7
2018-03-24T09:58:42.535Z,60.8
2018-03-24T09:59:44.966Z,60.5
2018-03-24T10:00:47.405Z,60.3
2018-03-24T10:01:50.132Z,60
2018-03-24T10:02:52.572Z,60
2018-03-24T10:03:54.993Z,60
2018-03-24T10:04:57.439Z,60
2018-03-24T10:05:59.866Z,60
2018-03-24T10:07:02.604Z,60
2018-03-24T10:08:05.047Z,60
2018-03-24T10:09:07.479Z,59.6
2018-03-24T10:10:09.906Z,59.3
2018-03-24T10:11:12.344Z,59.3
2018-03-24T10:12:14.781Z,59
2018-03-24T10:13:17.516Z,59
2018-03-24T10:14:20.234Z,59
2018-03-24T10:15:22.681Z,59.1
2018-03-24T10:16:25.121Z,59.4
2018-03-24T10:17:27.884Z,59.6
2018-03-24T10:18:30.326Z,59.7
2018-03-24T10:19:32.755Z,60
2018-03-24T10:20:35.339Z,59.8
2018-03-24T10:21:38.056Z,59.6
2018-03-24T10:22:40.482Z,59.6
2018-03-24T10:23:43.027Z,59.3
2018-03-24T10:24:45.752Z,59
2018-03-24T10:25:49.047Z,59
2018-03-24T10:26:51.495Z,58.8
2018-03-24T10:27:54.213Z,58.7
2018-03-24T10:28:56.803Z,58.7
2018-03-24T10:29:59.638Z,59
2018-03-24T10:31:02.658Z,58.9
2018-03-24T10:32:05.098Z,58.2
2018-03-24T10:33:07.542Z,58.1
2018-03-24T10:34:09.986Z,58
2018-03-24T10:35:12.416Z,58
2018-03-24T10:36:14.859Z,57.8
2018-03-24T10:37:17.300Z,58.3
2018-03-24T10:38:20.136Z,58.5
2018-03-24T10:39:22.576Z,58.5
2018-03-24T10:40:25.010Z,57.7
2018-03-24T10:41:27.789Z,57.6
2018-03-24T10:42:30.181Z,57.3
2018-03-24T10:43:32.618Z,57.1
2018-03-24T10:44:35.052Z,56.9
2018-03-24T10:45:37.479Z,57.3
2018-03-24T10:46:40.271Z,57.2
2018-03-24T10:47:42.707Z,57.3
2018-03-24T10:48:45.147Z,57.3
2018-03-24T10:49:47.572Z,57.4
2018-03-24T10:50:50.016Z,57.1
2018-03-24T10:51:52.741Z,56.8
2018-03-24T10:52:55.182Z,56.8
2018-03-24T10:53:57.717Z,56.9
2018-03-24T10:55:00.152Z,57.2
2018-03-24T10:56:02.594Z,57.3
2018-03-24T10:57:05.420Z,57.5
2018-03-24T10:58:07.976Z,57.6
2018-03-24T10:59:10.396Z,57.6
2018-03-24T11:00:12.968Z,57.5
2018-03-24T11:01:15.404Z,57.5
2018-03-24T11:02:17.841Z,57.5
2018-03-24T11:03:20.285Z,57.5
2018-03-24T11:04:22.723Z,57.3
2018-03-24T11:05:25.162Z,57.4
2018-03-24T11:06:27.622Z,57
2018-03-24T11:07:30.061Z,57
2018-03-24T11:08:32.489Z,57.2
2018-03-24T11:09:34.928Z,57.3
2018-03-24T11:10:37.875Z,57.4
2018-03-24T11:11:40.313Z,57.4
2018-03-24T11:12:42.751Z,57.4
2018-03-24T11:13:45.175Z,56.9
2018-03-24T11:14:47.633Z,56.3
2018-03-24T11:15:50.368Z,56.1
2018-03-24T11:16:52.807Z,55.7
2018-03-24T11:17:55.251Z,55.6
2018-03-24T11:18:57.770Z,55.5
2018-03-24T11:20:00.198Z,55.7
2018-03-24T11:21:02.650Z,55.8
2018-03-24T11:22:05.095Z,55.5
2018-03-24T11:23:07.809Z,55.5
2018-03-24T11:24:10.249Z,55.3
2018-03-24T11:25:12.692Z,55.2
2018-03-24T11:26:15.137Z,54.8
2018-03-24T11:27:17.578Z,54.8
2018-03-24T11:28:20.016Z,54.5
2018-03-24T11:29:23.029Z,54.3
2018-03-24T11:30:25.460Z,53.9
2018-03-24T11:31:27.896Z,54
2018-03-24T11:32:30.347Z,53.6
2018-03-24T11:33:32.785Z,53.6
2018-03-24T11:34:35.216Z,53.7
2018-03-24T11:35:37.675Z,53.9
2018-03-24T11:36:41.273Z,53.8
2018-03-24T11:37:43.718Z,53.6
2018-03-24T11:38:46.205Z,53.6
2018-03-24T11:39:48.592Z,53.8
2018-03-24T11:40:51.022Z,53.6
2018-03-24T11:41:53.692Z,53.5
2018-03-24T11:42:56.127Z,53.7
2018-03-24T11:43:58.573Z,53.8
2018-03-24T11:45:01.044Z,54
2018-03-24T11:46:04.253Z,54.2
2018-03-24T11:47:06.706Z,54.1
2018-03-24T11:48:09.463Z,54
2018-03-24T11:49:12.190Z,54
2018-03-24T11:50:14.632Z,54.1
2018-03-24T11:51:17.057Z,54.3
2018-03-24T11:52:19.497Z,54.2
2018-03-24T11:53:21.933Z,53.9
2018-03-24T11:54:24.363Z,53.8
2018-03-24T11:55:26.803Z,53.5
2018-03-24T11:56:29.254Z,53.3
2018-03-24T11:57:31.981Z,53.2
2018-03-24T11:58:34.411Z,53.1
2018-03-24T11:59:37.130Z,53.2
2018-03-24T12:00:39.857Z,53.3
2018-03-24T12:01:42.508Z,53.1
2018-03-24T12:02:44.945Z,53.1
2018-03-24T12:03:47.397Z,53.1
2018-03-24T12:04:49.823Z,53.3
2018-03-24T12:05:52.365Z,53.6
2018-03-24T12:06:54.804Z,53.7
2018-03-24T12:07:57.530Z,53.6
2018-03-24T12:09:00.261Z,53.6
2018-03-24T12:10:02.721Z,53.3
2018-03-24T12:11:05.160Z,52.9
2018-03-24T12:12:08.172Z,52.8
2018-03-24T12:13:10.616Z,52.8
2018-03-24T12:14:13.356Z,53
2018-03-24T12:15:15.798Z,53
2018-03-24T12:16:18.621Z,53
2018-03-24T12:17:21.057Z,53.1
2018-03-24T12:18:23.504Z,53
2018-03-24T12:19:25.928Z,52.7
2018-03-24T12:20:28.396Z,52.7
2018-03-24T12:21:30.927Z,52.6
2018-03-24T12:22:33.370Z,52.5
2018-03-24T12:23:36.172Z,52.7
2018-03-24T12:24:38.893Z,52.8
2018-03-24T12:25:41.331Z,52.6
2018-03-24T12:26:43.780Z,52.5
2018-03-24T12:27:46.310Z,52.4
2018-03-24T12:28:48.753Z,52
2018-03-24T12:29:51.180Z,51.9
2018-03-24T12:30:53.841Z,52
2018-03-24T12:31:56.277Z,52
2018-03-24T12:32:58.746Z,51.7
2018-03-24T12:34:01.599Z,51.8
2018-03-24T12:35:04.037Z,51.8
2018-03-24T12:36:06.477Z,52
2018-03-24T12:37:08.927Z,51.9
2018-03-24T12:38:11.951Z,51.9
2018-03-24T12:39:14.972Z,51.9
2018-03-24T12:40:17.403Z,51.7
2018-03-24T12:41:19.929Z,51.9
2018-03-24T12:42:22.666Z,52
2018-03-24T12:43:25.108Z,52.1
2018-03-24T12:44:27.541Z,52.2
2018-03-24T12:45:30.279Z,52.4
2018-03-24T12:46:32.718Z,52.4
2018-03-24T12:47:35.165Z,52
2018-03-24T12:48:37.603Z,51.7
2018-03-24T12:49:40.499Z,51.7
2018-03-24T12:50:43.227Z,51.3
2018-03-24T12:51:45.687Z,51.1
2018-03-24T12:52:48.129Z,51.2
2018-03-24T12:53:50.586Z,51.2
2018-03-24T12:54:53.019Z,51.2
2018-03-24T12:55:55.471Z,51.3
2018-03-24T12:56:58.053Z,50.7
2018-03-24T12:58:00.492Z,50.8
2018-03-24T12:59:02.935Z,50.9
2018-03-24T13:00:05.487Z,50.8
2018-03-24T13:01:07.912Z,50.7
2018-03-24T13:02:10.364Z,50.8
2018-03-24T13:03:13.249Z,50.5
2018-03-24T13:04:15.686Z,50.6
2018-03-24T13:05:18.474Z,50.8
2018-03-24T13:06:20.904Z,50.9
2018-03-24T13:07:23.692Z,50.9
2018-03-24T13:08:26.715Z,50.9
2018-03-24T13:09:29.153Z,50.2
2018-03-24T13:10:31.608Z,49.5
2018-03-24T13:11:34.101Z,49.6
2018-03-24T13:12:36.825Z,49.7
2018-03-24T13:13:39.262Z,49.8
2018-03-24T13:14:41.781Z,49.9
2018-03-24T13:15:44.248Z,49.9
2018-03-24T13:16:46.688Z,49.8
2018-03-24T13:17:49.132Z,49.6
2018-03-24T13:18:51.887Z,49.6
2018-03-24T13:19:54.328Z,49.6
2018-03-24T13:20:56.776Z,49.4
2018-03-24T13:21:59.226Z,49.6
2018-03-24T13:23:01.669Z,50.1
2018-03-24T13:24:04.121Z,50.3
2018-03-24T13:25:06.554Z,50.2
2018-03-24T13:26:08.998Z,50
2018-03-24T13:27:11.437Z,50
2018-03-24T13:28:14.491Z,49.9
2018-03-24T13:29:17.013Z,49.7
2018-03-24T13:30:19.468Z,49.5
2018-03-24T13:31:21.915Z,49
2018-03-24T13:32:24.371Z,48.8
2018-03-24T13:33:26.819Z,48.7
2018-03-24T13:34:29.834Z,48.3
2018-03-24T13:35:32.478Z,47.8
2018-03-24T13:36:34.920Z,47.7
2018-03-24T13:37:37.356Z,47.8
2018-03-24T13:38:39.812Z,47.9
2018-03-24T13:39:42.328Z,47.8
2018-03-24T13:40:44.774Z,48
2018-03-24T13:41:47.209Z,48.3
2018-03-24T13:42:49.720Z,48.6
2018-03-24T13:43:52.167Z,48.6
2018-03-24T13:44:54.910Z,48.4
2018-03-24T13:45:57.713Z,48.2
2018-03-24T13:47:00.162Z,48
2018-03-24T13:48:02.600Z,47.8
2018-03-24T13:49:05.097Z,47.8
2018-03-24T13:50:07.548Z,48.1
2018-03-24T13:51:09.984Z,48.2
2018-03-24T13:52:12.481Z,48.4
2018-03-24T13:53:15.226Z,48.6
2018-03-24T13:54:17.665Z,48.6
2018-03-24T13:55:20.507Z,48.8
2018-03-24T13:56:22.976Z,48.7
2018-03-24T13:57:26.058Z,48.8
2018-03-24T13:58:28.514Z,48.6
2018-03-24T13:59:30.974Z,48.5